createdAt,value
2018-08-22T00:39:54.856Z,98178.00
2018-08-22T00:42:33.821Z,98176.00
2018-08-22T00:45:12.279Z,98180.00
2018-08-22T00:47:52.305Z,98182.00
2018-08-22T00:50:36.282Z,98188.00
2018-08-22T00:53:14.958Z,98179.00
2018-08-22T00:55:54.297Z,98180.00
2018-08-22T00:58:32.834Z,98174.00
2018-08-22T01:01:14.781Z,98177.00
2018-08-22T01:03:53.681Z,98181.00
2018-08-22T01:06:32.244Z,98177.00
2018-08-22T01:09:12.751Z,98180.00
2018-08-22T01:11:56.900Z,98179.00
2018-08-22T01:14:38.210Z,98187.00
2018-08-22T01:17:17.061Z,98187.00
2018-08-22T01:20:00.349Z,98184.00
2018-08-22T01:22:39.405Z,98182.00
2018-08-22T01:25:19.186Z,98177.00
2018-08-22T01:27:58.305Z,98186.00
2018-08-22T01:30:37.805Z,98185.00
2018-08-22T01:33:16.262Z,98184.00
2018-08-22T01:35:57.145Z,98182.00
2018-08-22T01:38:36.044Z,98181.00
2018-08-22T01:41:14.991Z,98177.00
2018-08-22T01:43:55.203Z,98176.00
2018-08-22T01:46:35.111Z,98174.00
2018-08-22T01:49:21.507Z,98172.00
2018-08-22T01:52:05.334Z,98170.00
2018-08-22T01:54:50.905Z,98170.00
2018-08-22T01:57:31.886Z,98167.00
2018-08-22T02:00:12.648Z,98167.00
2018-08-22T02:02:55.326Z,98172.00
2018-08-22T02:05:37.523Z,98169.00
2018-08-22T02:08:22.905Z,98171.00
2018-08-22T02:11:03.925Z,98170.00
2018-08-22T02:13:45.785Z,98177.00
2018-08-22T02:16:23.826Z,98170.00
2018-08-22T02:19:03.327Z,98167.00
2018-08-22T02:21:42.949Z,98169.00
2018-08-22T02:24:21.624Z,98176.00
2018-08-22T02:27:00.228Z,98176.00
2018-08-22T03:50:27.557Z,98161.00
2018-08-22T03:53:08.260Z,98164.00
2018-08-22T03:55:46.940Z,98169.00
2018-08-22T03:58:26.318Z,98170.00
2018-08-22T04:01:06.137Z,98167.00
2018-08-22T04:03:48.322Z,98169.00
2018-08-22T04:06:27.020Z,98166.00
2018-08-22T04:09:09.621Z,98173.00
2018-08-22T04:11:50.264Z,98183.00
2018-08-22T04:14:31.937Z,98181.00
2018-08-22T04:17:10.376Z,98184.00
2018-08-22T04:19:56.298Z,98179.00
2018-08-22T04:22:42.900Z,98176.00
2018-08-22T04:25:23.238Z,98176.00
2018-08-22T04:28:03.115Z,98178.00
2018-08-22T04:30:41.416Z,98185.00
2018-08-22T04:33:22.202Z,98185.00
2018-08-22T04:36:02.340Z,98185.00
2018-08-22T04:38:41.660Z,98187.00
2018-08-22T04:41:22.640Z,98188.00
2018-08-22T04:44:04.038Z,98189.00
2018-08-22T04:46:42.605Z,98192.00
2018-08-22T04:49:21.864Z,98188.00
2018-08-22T04:52:00.595Z,98197.00
2018-08-22T04:54:40.400Z,98193.00
2018-08-22T04:57:20.080Z,98194.00
2018-08-22T05:00:00.041Z,98195.00
2018-08-22T05:02:40.337Z,98196.00
2018-08-22T05:05:20.717Z,98193.00
2018-08-22T05:08:06.600Z,98193.00
2018-08-22T05:10:51.166Z,98196.00
2018-08-22T05:13:35.444Z,98198.00
2018-08-22T05:16:18.182Z,98195.00
2018-08-22T05:19:03.406Z,98197.00
2018-08-22T05:21:44.722Z,98198.00
2018-08-22T05:24:27.381Z,98202.00
2018-08-22T05:27:12.000Z,98198.00
2018-08-22T05:29:57.141Z,98191.00
2018-08-22T05:32:35.502Z,98195.00
2018-08-22T05:35:18.302Z,98193.00
2018-08-22T05:37:59.204Z,98194.00
2018-08-22T05:40:38.808Z,98194.00
2018-08-22T05:43:18.359Z,98195.00
2018-08-22T05:46:00.300Z,98198.00
2018-08-22T05:48:39.902Z,98202.00
2018-08-22T05:51:20.877Z,98204.00
2018-08-22T05:53:59.401Z,98201.00
2018-08-22T07:26:22.800Z,98172.00
2018-08-22T07:29:05.858Z,98170.00
2018-08-22T07:31:50.179Z,98170.00
2018-08-22T07:34:31.038Z,98169.00
2018-08-22T07:37:10.857Z,98169.00
2018-08-22T07:39:48.738Z,98166.00
2018-08-22T07:42:30.905Z,98164.00
2018-08-22T07:45:09.325Z,98165.00
2018-08-22T07:47:53.691Z,98170.00
2018-08-22T07:50:35.244Z,98170.00
2018-08-22T07:53:17.057Z,98170.00
2018-08-22T07:55:59.969Z,98168.00
2018-08-22T07:58:39.041Z,98169.00
2018-08-22T08:01:17.582Z,98164.00
2018-08-22T08:03:55.319Z,98164.00
2018-08-22T08:06:34.582Z,98163.00
2018-08-22T08:09:18.660Z,98163.00
2018-08-22T08:11:56.799Z,98155.00
2018-08-22T08:14:34.578Z,98149.00
2018-08-22T08:17:15.233Z,98150.00
2018-08-22T08:19:54.823Z,98148.00
2018-08-22T08:22:38.399Z,98141.00
2018-08-22T08:25:18.839Z,98134.00
2018-08-22T08:27:56.557Z,98133.00
2018-08-22T08:30:37.896Z,98134.00
2018-08-22T08:33:21.602Z,98125.00
2018-08-22T08:36:01.347Z,98121.00
2018-08-22T08:38:41.206Z,98123.00
2018-08-22T08:41:19.352Z,98122.00
2018-08-22T08:43:59.597Z,98116.00
2018-08-22T08:46:42.303Z,98113.00
2018-08-22T08:49:23.757Z,98111.00
2018-08-22T08:52:11.160Z,98105.00
2018-08-22T08:54:51.940Z,98104.00
2018-08-22T08:57:32.802Z,98100.00
2018-08-22T09:00:11.540Z,98094.00
2018-08-22T09:02:50.141Z,98092.00
2018-08-22T09:05:30.547Z,98093.00
2018-08-22T09:08:09.243Z,98091.00
2018-08-22T09:10:49.710Z,98090.00
2018-08-22T09:13:28.819Z,98087.00
2018-08-22T09:16:06.336Z,98081.00
2018-08-22T09:18:46.660Z,98080.00
2018-08-22T09:21:24.578Z,98079.00
2018-08-22T09:24:02.996Z,98077.00
2018-08-22T09:26:44.610Z,98079.00
2018-08-22T09:29:25.427Z,98074.00
2018-08-22T09:32:05.340Z,98075.00
2018-08-22T09:34:45.018Z,98070.00
2018-08-22T09:37:24.135Z,98060.00
2018-08-22T09:40:11.419Z,98055.00
2018-08-22T09:42:52.699Z,98059.00
2018-08-22T09:45:31.025Z,98051.00
2018-08-22T09:48:13.379Z,98052.00
2018-08-22T09:50:53.732Z,98046.00
2018-08-22T09:53:36.680Z,98050.00
2018-08-22T09:56:17.164Z,98050.00
2018-08-22T09:58:56.259Z,98040.00
2018-08-22T10:01:44.115Z,98036.00
2018-08-22T10:04:26.752Z,98034.00
2018-08-22T10:07:08.360Z,98037.00
2018-08-22T10:09:51.625Z,98030.00
2018-08-22T10:12:30.468Z,98022.00
2018-08-22T10:15:10.498Z,98019.00
2018-08-22T10:17:54.105Z,98017.00
2018-08-22T10:20:34.920Z,98011.00
2018-08-22T10:23:16.888Z,98015.00
2018-08-22T10:25:59.581Z,98006.00
2018-08-22T10:28:44.301Z,98005.00
2018-08-22T10:31:30.041Z,98007.00
2018-08-22T10:34:13.623Z,97999.00
2018-08-22T10:36:59.985Z,97999.00
2018-08-22T10:39:46.342Z,97991.00
2018-08-22T10:42:26.657Z,97994.00
2018-08-22T10:45:07.966Z,97990.00
2018-08-22T10:47:47.401Z,97985.00
2018-08-22T10:50:26.397Z,97986.00
2018-08-22T10:53:12.718Z,97984.00
2018-08-22T10:55:50.746Z,97983.00
2018-08-22T10:58:29.541Z,97979.00
2018-08-22T11:01:09.197Z,97979.00
2018-08-22T11:03:50.215Z,97970.00
2018-08-22T11:06:33.585Z,97967.00
2018-08-22T11:09:20.743Z,97969.00
2018-08-22T11:12:03.062Z,97959.00
2018-08-22T11:14:48.902Z,97957.00
2018-08-22T11:17:31.902Z,97960.00
2018-08-22T11:20:16.517Z,97953.00
2018-08-22T11:23:08.667Z,97949.00
2018-08-22T11:26:01.343Z,97954.00
2018-08-22T11:28:52.098Z,97951.00
2018-08-22T11:31:41.939Z,97950.00
2018-08-22T11:34:34.571Z,97946.00
2018-08-22T11:37:20.144Z,97945.00
2018-08-22T11:40:05.260Z,97948.00
2018-08-22T11:42:44.961Z,97943.00
2018-08-22T11:45:27.860Z,97940.00
2018-08-22T11:48:09.040Z,97946.00
2018-08-22T11:50:51.063Z,97941.00
2018-08-22T12:26:12.047Z,97913.00
2018-08-22T12:28:57.165Z,97906.00
2018-08-22T12:31:38.862Z,97903.00
2018-08-22T12:34:27.705Z,97895.00
2018-08-22T12:37:10.423Z,97899.00
2018-08-22T12:39:49.660Z,97887.00
2018-08-22T12:42:34.037Z,97891.00
2018-08-22T12:45:21.103Z,97893.00
2018-08-22T12:48:05.643Z,97892.00
2018-08-22T12:50:49.320Z,97880.00
2018-08-22T12:53:29.641Z,97876.00
2018-08-22T12:56:14.568Z,97875.00
2018-08-22T12:58:58.241Z,97877.00
2018-08-22T13:01:38.884Z,97874.00
2018-08-22T13:04:17.521Z,97878.00
2018-08-22T13:07:06.199Z,97875.00
2018-08-22T13:09:47.659Z,97868.00
2018-08-22T13:12:28.863Z,97862.00
2018-08-22T13:15:11.776Z,97854.00
2018-08-22T13:17:53.980Z,97846.00
2018-08-22T14:08:34.337Z,97822.00
2018-08-22T14:11:18.565Z,97820.00
2018-08-22T14:13:59.801Z,97818.00
2018-08-22T14:16:37.943Z,97816.00
2018-08-22T14:19:18.044Z,97815.00
2018-08-22T14:21:57.443Z,97810.00
2018-08-22T14:24:37.603Z,97810.00
2018-08-22T14:27:16.984Z,97812.00
2018-08-22T14:29:57.317Z,97812.00
2018-08-22T14:32:37.863Z,97808.00
2018-08-22T14:35:21.624Z,97808.00
2018-08-22T14:38:00.174Z,97805.00
2018-08-22T14:40:40.682Z,97798.00
2018-08-22T14:43:21.067Z,97794.00
2018-08-22T14:46:02.925Z,97792.00
2018-08-22T14:48:44.299Z,97791.00
2018-08-22T14:51:25.861Z,97787.00
2018-08-22T14:54:08.861Z,97786.00
2018-08-22T14:56:48.868Z,97789.00
2018-08-22T14:59:28.674Z,97785.00
2018-08-22T15:02:06.722Z,97788.00
2018-08-22T15:04:50.658Z,97786.00
2018-08-22T15:07:32.266Z,97784.00
2018-08-22T15:10:13.761Z,97774.00
2018-08-22T15:12:54.320Z,97774.00
2018-08-22T15:15:41.120Z,97768.00
2018-08-22T15:18:25.985Z,97767.00
2018-08-22T15:21:09.102Z,97766.00
2018-08-22T15:23:52.123Z,97766.00
2018-08-22T15:26:34.598Z,97764.00
2018-08-22T15:29:15.345Z,97762.00
2018-08-22T15:31:58.874Z,97757.00
2018-08-22T15:34:52.638Z,97761.00
2018-08-22T15:37:31.900Z,97760.00
2018-08-22T15:40:11.398Z,97758.00
2018-08-22T15:42:49.258Z,97752.00
2018-08-22T15:45:29.657Z,97753.00
2018-08-22T15:48:11.540Z,97758.00
2018-08-22T15:50:49.517Z,97753.00
2018-08-22T15:53:28.397Z,97753.00
2018-08-22T15:56:09.619Z,97749.00
2018-08-22T15:58:53.583Z,97750.00
2018-08-22T16:01:37.719Z,97747.00
2018-08-22T16:04:22.598Z,97740.00
2018-08-22T16:07:07.920Z,97740.00
2018-08-22T16:09:48.259Z,97734.00
2018-08-22T16:12:32.460Z,97734.00
2018-08-22T16:15:13.463Z,97729.00
2018-08-22T16:18:03.320Z,97729.00
2018-08-22T16:20:50.559Z,97725.00
2018-08-22T16:23:31.939Z,97725.00
2018-08-22T16:26:12.727Z,97718.00
2018-08-22T16:29:03.619Z,97720.00
2018-08-22T16:31:51.737Z,97722.00
2018-08-22T16:34:31.098Z,97725.00
2018-08-22T16:37:13.378Z,97728.00
2018-08-22T16:39:58.037Z,97728.00
2018-08-22T16:42:42.943Z,97731.00
2018-08-22T16:45:25.118Z,97729.00
2018-08-22T16:48:06.661Z,97729.00
2018-08-22T16:50:47.717Z,97726.00
2018-08-22T16:53:30.976Z,97725.00
2018-08-22T16:56:09.719Z,97727.00
2018-08-22T16:58:51.405Z,97735.00
2018-08-22T17:01:31.665Z,97734.00
2018-08-22T17:04:21.054Z,97735.00
2018-08-22T17:07:07.096Z,97738.00
2018-08-22T17:09:48.881Z,97734.00
2018-08-22T17:12:29.543Z,97730.00
2018-08-22T17:15:10.342Z,97728.00
2018-08-22T17:17:48.784Z,97733.00
2018-08-22T17:20:29.441Z,97729.00
2018-08-22T17:23:07.350Z,97733.00
2018-08-22T17:25:45.102Z,97734.00
2018-08-22T17:28:32.160Z,97732.00
2018-08-22T17:31:14.938Z,97736.00
2018-08-22T17:34:01.640Z,97738.00
2018-08-22T17:36:42.543Z,97739.00
2018-08-22T17:39:23.238Z,97740.00
2018-08-22T17:42:01.126Z,97744.00
2018-08-22T17:44:43.782Z,97746.00
2018-08-22T17:47:24.976Z,97743.00
2018-08-22T17:50:15.259Z,97746.00
2018-08-22T17:53:00.079Z,97748.00
2018-08-22T17:55:44.045Z,97749.00
2018-08-22T17:58:25.784Z,97754.00
2018-08-22T18:01:07.400Z,97746.00
2018-08-22T18:03:46.140Z,97750.00
2018-08-22T18:06:27.857Z,97753.00
2018-08-22T18:09:08.382Z,97763.00
2018-08-22T18:11:52.307Z,97763.00
2018-08-22T18:14:34.664Z,97763.00
2018-08-22T18:17:15.584Z,97765.00
2018-08-22T18:19:57.704Z,97767.00
2018-08-22T18:22:45.856Z,97768.00
2018-08-22T18:25:26.740Z,97770.00
2018-08-22T18:28:10.581Z,97771.00
2018-08-22T18:30:53.234Z,97772.00
2018-08-22T18:33:40.664Z,97776.00
2018-08-22T18:36:22.536Z,97777.00
2018-08-22T18:39:20.365Z,97774.00
2018-08-22T18:41:59.099Z,97777.00
2018-08-22T18:44:38.676Z,97782.00
2018-08-22T18:47:19.317Z,97781.00
2018-08-22T18:50:00.406Z,97782.00
2018-08-22T18:52:40.280Z,97789.00
2018-08-22T18:55:22.037Z,97793.00
2018-08-22T18:58:04.257Z,97792.00
2018-08-22T19:00:47.159Z,97800.00
2018-08-22T19:03:26.477Z,97804.00
2018-08-22T19:06:11.402Z,97802.00
2018-08-22T19:08:52.505Z,97802.00
2018-08-22T19:11:34.000Z,97809.00
2018-08-22T19:14:16.487Z,97810.00
2018-08-22T19:16:56.883Z,97810.00
2018-08-22T19:19:41.643Z,97812.00
2018-08-22T19:22:24.021Z,97810.00
2018-08-22T19:25:12.747Z,97815.00
2018-08-22T19:27:54.662Z,97822.00
2018-08-22T19:30:38.465Z,97824.00
2018-08-22T19:33:26.157Z,97823.00
2018-08-22T19:36:06.303Z,97821.00
2018-08-22T19:38:49.088Z,97820.00
2018-08-22T19:41:39.343Z,97822.00
2018-08-22T19:44:17.801Z,97821.00
2018-08-22T19:47:04.784Z,97821.00
2018-08-22T19:49:45.679Z,97820.00
2018-08-22T19:52:25.443Z,97827.00
2018-08-22T19:55:07.280Z,97825.00
2018-08-22T19:57:51.357Z,97823.00
2018-08-22T20:00:31.315Z,97821.00
2018-08-22T20:03:13.018Z,97818.00
2018-08-22T20:06:03.827Z,97821.00
2018-08-22T20:08:46.328Z,97834.00
2018-08-22T20:11:25.720Z,97834.00
2018-08-22T20:14:10.422Z,97837.00
2018-08-22T20:16:53.082Z,97838.00
2018-08-22T20:19:35.639Z,97842.00
2018-08-22T21:48:58.013Z,97852.00
2018-08-22T21:51:40.135Z,97848.00
2018-08-22T21:54:21.336Z,97844.00
2018-08-22T21:57:00.432Z,97846.00
2018-08-22T21:59:39.756Z,97845.00
2018-08-22T22:02:17.952Z,97843.00
2018-08-22T22:04:56.575Z,97839.00
2018-08-22T22:07:36.727Z,97839.00
2018-08-22T22:10:19.034Z,97840.00
2018-08-22T22:12:58.294Z,97842.00
2018-08-22T22:15:48.495Z,97844.00
2018-08-22T22:18:29.889Z,97845.00
2018-08-22T22:21:27.811Z,97841.00
2018-08-22T22:24:11.052Z,97841.00
2018-08-22T22:26:50.152Z,97840.00
2018-08-22T22:29:35.200Z,97837.00
2018-08-22T22:32:14.378Z,97838.00
2018-08-22T22:34:54.233Z,97834.00
2018-08-22T22:37:33.352Z,97834.00
2018-08-22T22:40:13.713Z,97843.00
2018-08-22T22:42:52.456Z,97838.00
2018-08-22T22:45:33.997Z,97842.00
2018-08-22T22:48:15.632Z,97843.00
2018-08-22T22:50:57.055Z,97842.00
2018-08-22T22:53:37.911Z,97838.00
2018-08-22T22:56:18.513Z,97837.00
2018-08-22T22:58:57.255Z,97843.00
2018-08-22T23:01:37.071Z,97836.00
2018-08-22T23:04:17.938Z,97836.00
2018-08-22T23:06:58.962Z,97837.00
2018-08-22T23:09:55.312Z,97832.00
2018-08-22T23:12:49.453Z,97835.00
2018-08-22T23:15:34.210Z,97840.00
2018-08-22T23:18:13.057Z,97837.00
2018-08-22T23:20:51.117Z,97842.00
2018-08-22T23:23:37.435Z,97839.00
2018-08-22T23:26:23.140Z,97841.00
2018-08-22T23:29:02.511Z,97835.00
2018-08-22T23:31:44.692Z,97827.00
2018-08-22T23:34:23.921Z,97829.00
2018-08-22T23:37:03.070Z,97830.00
2018-08-22T23:39:45.216Z,97827.00
2018-08-22T23:42:22.924Z,97824.00
2018-08-22T23:45:05.134Z,97824.00
2018-08-22T23:47:44.392Z,97819.00
2018-08-22T23:50:23.234Z,97821.00
2018-08-22T23:53:02.872Z,97824.00
2018-08-22T23:55:42.135Z,97820.00
2018-08-22T23:58:18.512Z,97818.00
